createdAt,value
2018-01-25T00:00:51.039Z,8.70
2018-01-25T00:11:58.208Z,8.70
2018-01-25T00:14:25.808Z,8.70
2018-01-25T00:16:53.412Z,8.70
2018-01-25T00:19:21.810Z,8.80
2018-01-25T00:21:50.183Z,8.70
2018-01-25T00:24:17.799Z,8.70
2018-01-25T00:26:46.168Z,8.80
2018-01-25T00:29:13.804Z,8.80
2018-01-25T00:31:41.401Z,8.80
2018-01-25T00:34:09.017Z,8.70
2018-01-25T00:36:36.617Z,8.70
2018-01-25T00:39:04.240Z,8.70
2018-01-25T00:41:32.598Z,8.70
2018-01-25T00:44:00.275Z,8.70
2018-01-25T00:46:27.840Z,8.80
2018-01-25T00:48:55.462Z,8.70
2018-01-25T00:51:23.067Z,8.70
2018-01-25T00:53:51.453Z,8.70
2018-01-25T00:56:19.032Z,8.70
2018-01-25T00:58:47.472Z,8.70
2018-01-25T01:01:15.874Z,8.80
2018-01-25T01:03:44.258Z,8.90
2018-01-25T01:06:11.883Z,8.90
2018-01-25T01:08:39.475Z,8.70
2018-01-25T01:11:07.095Z,8.70
2018-01-25T01:13:34.710Z,8.80
2018-01-25T01:16:03.105Z,8.80
2018-01-25T01:18:30.693Z,8.80
2018-01-25T01:20:58.335Z,8.80
2018-01-25T01:23:25.918Z,8.80
2018-01-25T01:25:53.507Z,8.70
2018-01-25T01:28:21.119Z,8.80
2018-01-25T01:30:48.716Z,8.70
2018-01-25T01:33:16.358Z,8.80
2018-01-25T01:35:43.955Z,8.80
2018-01-25T01:38:11.581Z,8.80
2018-01-25T01:40:39.935Z,8.70
2018-01-25T01:43:07.564Z,8.70
2018-01-25T01:45:35.927Z,8.70
2018-01-25T01:48:03.530Z,8.70
2018-01-25T01:50:31.132Z,8.80
2018-01-25T01:52:58.733Z,8.80
2018-01-25T01:55:27.085Z,8.80
2018-01-25T01:57:54.721Z,8.90
2018-01-25T02:00:23.101Z,8.90
2018-01-25T02:02:50.788Z,8.90
2018-01-25T02:05:18.362Z,8.80
2018-01-25T02:07:46.408Z,8.80
2018-01-25T02:10:14.003Z,8.80
2018-01-25T02:12:41.640Z,8.70
2018-01-25T02:15:09.303Z,8.70
2018-01-25T02:17:36.894Z,8.60
2018-01-25T02:20:05.314Z,8.80
2018-01-25T02:22:32.907Z,8.70
2018-01-25T02:25:00.526Z,8.70
2018-01-25T02:27:28.118Z,8.60
2018-01-25T02:29:55.730Z,8.50
2018-01-25T02:32:23.318Z,8.50
2018-01-25T02:34:50.908Z,8.50
2018-01-25T02:37:18.466Z,8.40
2018-01-25T02:39:46.459Z,8.50
2018-01-25T02:42:14.037Z,8.40
2018-01-25T02:44:41.615Z,8.30
2018-01-25T02:47:09.167Z,8.20
2018-01-25T02:49:37.489Z,8.40
2018-01-25T02:52:05.857Z,8.30
2018-01-25T02:54:33.420Z,8.30
2018-01-25T02:57:00.998Z,8.30
2018-01-25T02:59:28.554Z,8.30
2018-01-25T03:01:56.147Z,8.30
2018-01-25T03:04:23.714Z,8.30
2018-01-25T03:06:51.290Z,8.40
2018-01-25T03:09:19.629Z,8.40
2018-01-25T03:11:48.568Z,8.40
2018-01-25T03:14:16.735Z,8.40
2018-01-25T03:16:44.322Z,8.40
2018-01-25T03:19:11.890Z,8.40
2018-01-25T03:21:39.473Z,8.50
2018-01-25T03:24:07.035Z,8.70
2018-01-25T03:26:35.389Z,8.60
2018-01-25T03:29:02.974Z,8.60
2018-01-25T03:31:30.571Z,8.60
2018-01-25T03:33:58.153Z,8.50
2018-01-25T03:36:25.734Z,8.50
2018-01-25T03:38:53.281Z,8.40
2018-01-25T03:41:20.902Z,8.30
2018-01-25T03:43:48.484Z,8.40
2018-01-25T03:46:16.548Z,8.40
2018-01-25T03:48:44.148Z,8.30
2018-01-25T03:51:11.721Z,8.30
2018-01-25T03:53:39.303Z,8.20
2018-01-25T03:56:06.855Z,8.20
2018-01-25T03:58:34.444Z,8.20
2018-01-25T04:01:02.806Z,8.30
2018-01-25T04:03:30.414Z,8.20
2018-01-25T04:05:57.974Z,8.30
2018-01-25T04:08:25.554Z,8.30
2018-01-25T04:10:53.098Z,8.40
2018-01-25T04:13:21.460Z,8.50
2018-01-25T04:15:49.018Z,8.50
2018-01-25T04:18:17.243Z,8.50
2018-01-25T04:20:44.798Z,8.60
2018-01-25T04:23:12.379Z,8.70
2018-01-25T04:25:39.963Z,8.70
2018-01-25T04:28:08.588Z,8.70
2018-01-25T04:30:36.150Z,8.70
2018-01-25T04:33:03.734Z,8.70
2018-01-25T04:35:31.336Z,8.80
2018-01-25T04:37:58.915Z,8.70
2018-01-25T04:40:26.495Z,8.80
2018-01-25T04:42:54.055Z,8.80
2018-01-25T04:45:23.111Z,8.80
2018-01-25T04:47:50.669Z,8.80
2018-01-25T04:50:18.273Z,8.80
2018-01-25T04:52:46.555Z,8.80
2018-01-25T04:55:14.144Z,8.80
2018-01-25T04:57:41.695Z,8.70
2018-01-25T05:00:09.292Z,8.70
2018-01-25T05:02:37.624Z,8.70
2018-01-25T05:05:05.194Z,8.70
2018-01-25T05:07:32.752Z,8.70
2018-01-25T05:10:01.103Z,8.60
2018-01-25T05:12:28.664Z,8.60
2018-01-25T05:14:56.295Z,8.70
2018-01-25T05:17:24.672Z,8.60
2018-01-25T05:19:52.226Z,8.70
2018-01-25T05:22:20.570Z,8.60
2018-01-25T05:24:48.135Z,8.50
2018-01-25T05:27:15.816Z,8.50
2018-01-25T05:29:43.376Z,8.70
2018-01-25T05:32:11.741Z,8.70
2018-01-25T05:34:39.313Z,8.70
2018-01-25T05:37:06.918Z,8.80
2018-01-25T05:39:34.486Z,8.80
2018-01-25T05:42:02.155Z,8.90
2018-01-25T05:44:29.740Z,9.00
2018-01-25T05:46:57.343Z,9.00
2018-01-25T05:49:24.922Z,9.10
2018-01-25T05:51:52.530Z,9.10
2018-01-25T05:54:20.100Z,9.00
2018-01-25T05:56:47.705Z,9.10
2018-01-25T05:59:16.446Z,8.90
2018-01-25T06:01:44.820Z,8.90
2018-01-25T06:04:12.374Z,8.90
2018-01-25T06:06:39.933Z,8.80
2018-01-25T06:09:07.533Z,8.80
2018-01-25T06:11:35.090Z,8.70
2018-01-25T06:14:02.695Z,8.80
2018-01-25T06:16:30.259Z,8.70
2018-01-25T06:18:57.852Z,8.80
2018-01-25T06:21:25.410Z,8.80
2018-01-25T06:23:53.773Z,8.80
2018-01-25T06:26:21.342Z,8.80
2018-01-25T06:28:48.931Z,8.80
2018-01-25T06:31:16.596Z,9.00
2018-01-25T06:33:44.179Z,9.10
2018-01-25T06:36:11.786Z,9.10
2018-01-25T06:38:39.438Z,9.20
2018-01-25T06:41:06.981Z,9.20
2018-01-25T06:43:34.531Z,9.30
2018-01-25T06:46:02.164Z,9.30
2018-01-25T06:48:29.743Z,9.30
2018-01-25T06:50:57.337Z,9.20
2018-01-25T06:53:24.891Z,9.40
2018-01-25T06:55:52.486Z,9.40
2018-01-25T06:58:20.052Z,9.40
2018-01-25T07:00:48.802Z,9.30
2018-01-25T07:03:17.122Z,9.40
2018-01-25T07:05:45.474Z,9.40
2018-01-25T07:08:13.034Z,9.40
2018-01-25T07:10:40.615Z,9.40
2018-01-25T07:13:08.199Z,9.40
2018-01-25T07:15:35.764Z,9.50
2018-01-25T07:18:04.127Z,9.40
2018-01-25T07:20:31.701Z,9.40
2018-01-25T07:22:59.312Z,9.40
2018-01-25T07:25:26.875Z,9.40
2018-01-25T07:27:54.463Z,9.40
2018-01-25T07:30:22.023Z,9.40
2018-01-25T07:32:49.607Z,9.40
2018-01-25T07:35:17.161Z,9.50
2018-01-25T07:37:44.755Z,9.50
2018-01-25T07:40:12.322Z,9.50
2018-01-25T07:42:39.907Z,9.60
2018-01-25T07:45:07.495Z,9.60
2018-01-25T07:47:35.064Z,9.60
2018-01-25T07:50:03.439Z,9.70
2018-01-25T07:52:31.014Z,9.70
2018-01-25T07:54:58.596Z,9.70
2018-01-25T08:00:32.724Z,9.80
2018-01-25T08:03:01.061Z,9.80
2018-01-25T08:05:28.668Z,9.80
2018-01-25T08:07:56.244Z,10.00
2018-01-25T08:10:23.842Z,10.00
2018-01-25T08:12:51.418Z,9.90
2018-01-25T08:15:19.008Z,10.10
2018-01-25T08:17:47.432Z,10.00
2018-01-25T08:20:17.252Z,10.00
2018-01-25T08:22:47.453Z,10.10
2018-01-25T08:25:16.634Z,10.10
2018-01-25T08:27:47.705Z,10.10
2018-01-25T08:30:16.080Z,10.10
2018-01-25T08:32:43.657Z,10.10
2018-01-25T08:35:11.289Z,10.10
2018-01-25T08:37:39.719Z,10.20
2018-01-25T08:40:07.325Z,10.20
2018-01-25T08:42:34.908Z,10.20
2018-01-25T08:45:02.529Z,10.30
2018-01-25T08:47:30.154Z,10.20
2018-01-25T08:49:59.018Z,10.00
2018-01-25T08:52:26.810Z,10.00
2018-01-25T08:54:54.394Z,10.10
2018-01-25T08:57:21.990Z,10.10
2018-01-25T08:59:49.550Z,10.10
2018-01-25T09:02:17.142Z,10.20
2018-01-25T09:04:44.707Z,10.20
2018-01-25T09:07:12.323Z,10.20
2018-01-25T09:09:40.169Z,10.00
2018-01-25T09:12:07.534Z,10.00
2018-01-25T09:14:35.880Z,9.90
2018-01-25T09:17:03.508Z,9.80
2018-01-25T09:19:31.123Z,9.80
2018-01-25T09:21:58.718Z,9.80
2018-01-25T09:24:26.319Z,9.80
2018-01-25T09:26:53.921Z,9.70
2018-01-25T09:29:21.642Z,9.70
2018-01-25T09:31:49.392Z,9.70
2018-01-25T09:34:16.996Z,9.60
2018-01-25T09:36:44.559Z,9.60
2018-01-25T09:39:12.135Z,9.60
2018-01-25T09:41:39.717Z,9.60
2018-01-25T09:44:07.317Z,9.50
2018-01-25T09:46:34.876Z,9.50
2018-01-25T09:49:02.472Z,9.40
2018-01-25T09:51:30.042Z,9.40
2018-01-25T09:53:58.417Z,9.30
2018-01-25T09:56:25.984Z,9.30
2018-01-25T09:58:53.607Z,9.20
2018-01-25T10:01:22.937Z,9.20
2018-01-25T10:03:51.272Z,9.30
2018-01-25T10:06:18.893Z,9.20
2018-01-25T10:08:47.431Z,9.20
2018-01-25T10:11:15.046Z,9.30
2018-01-25T10:13:42.675Z,9.30
2018-01-25T10:16:10.342Z,9.30
2018-01-25T10:18:37.921Z,9.40
2018-01-25T10:21:05.541Z,9.40
2018-01-25T10:23:33.890Z,9.40
2018-01-25T10:26:01.494Z,9.40
2018-01-25T10:28:29.119Z,9.40
2018-01-25T10:30:57.474Z,9.30
2018-01-25T10:33:25.080Z,9.20
2018-01-25T10:35:52.670Z,9.30
2018-01-25T10:38:20.223Z,9.30
2018-01-25T10:40:47.820Z,9.30
2018-01-25T10:43:15.384Z,9.20
2018-01-25T10:45:42.970Z,9.20
2018-01-25T10:48:10.575Z,9.20
2018-01-25T10:50:38.222Z,9.30
2018-01-25T10:53:05.858Z,9.20
2018-01-25T10:55:33.447Z,9.20
2018-01-25T10:58:01.075Z,9.20
2018-01-25T11:00:28.662Z,9.20
2018-01-25T11:02:56.265Z,9.20
2018-01-25T11:05:23.845Z,9.20
2018-01-25T11:07:51.454Z,9.20
2018-01-25T11:10:20.625Z,9.20
2018-01-25T11:12:48.218Z,9.20
2018-01-25T11:15:15.804Z,9.20
2018-01-25T11:17:43.533Z,9.20
2018-01-25T11:20:11.124Z,9.20
2018-01-25T11:22:38.735Z,9.20
2018-01-25T11:25:07.082Z,9.20
2018-01-25T11:27:34.699Z,9.10
2018-01-25T11:30:02.268Z,9.20
2018-01-25T11:32:29.837Z,9.10
2018-01-25T11:34:57.441Z,9.10
2018-01-25T11:37:25.055Z,9.10
2018-01-25T11:39:53.461Z,9.10
2018-01-25T11:42:21.841Z,9.10
2018-01-25T11:44:49.462Z,9.10
2018-01-25T11:47:17.074Z,9.10
2018-01-25T11:49:44.710Z,9.10
2018-01-25T11:52:12.270Z,9.10
2018-01-25T11:54:39.976Z,9.10
2018-01-25T11:57:07.601Z,9.10
2018-01-25T11:59:35.507Z,9.10
2018-01-25T12:02:03.091Z,9.10
2018-01-25T12:04:30.663Z,9.10
2018-01-25T12:06:58.538Z,9.10
2018-01-25T12:09:26.673Z,9.10
2018-01-25T12:11:54.274Z,9.10
2018-01-25T12:14:21.841Z,9.10
2018-01-25T12:16:49.452Z,9.10
2018-01-25T12:19:17.084Z,9.10
2018-01-25T12:21:44.741Z,9.10
2018-01-25T12:24:13.099Z,9.10
2018-01-25T12:26:40.683Z,9.10
2018-01-25T12:29:08.320Z,9.10
2018-01-25T12:31:36.650Z,9.10
2018-01-25T12:34:04.288Z,9.10
2018-01-25T12:36:31.870Z,9.20
2018-01-25T12:38:59.459Z,9.20
2018-01-25T12:41:27.019Z,9.20
2018-01-25T12:43:54.630Z,9.20
2018-01-25T12:46:22.218Z,9.20
2018-01-25T12:48:49.859Z,9.30
2018-01-25T12:51:17.448Z,9.20
2018-01-25T12:53:45.049Z,9.20
2018-01-25T12:56:12.642Z,9.30
2018-01-25T12:58:40.207Z,9.20
2018-01-25T13:01:07.800Z,9.20
2018-01-25T13:03:35.466Z,9.20
2018-01-25T13:06:03.096Z,9.20
2018-01-25T13:08:30.669Z,9.20
2018-01-25T13:10:59.224Z,9.20
2018-01-25T13:13:26.807Z,9.20
2018-01-25T13:15:54.387Z,9.10
2018-01-25T13:18:22.745Z,9.20
2018-01-25T13:20:51.071Z,9.20
2018-01-25T13:23:18.688Z,9.10
2018-01-25T13:25:46.299Z,9.10
2018-01-25T13:28:13.927Z,9.10
2018-01-25T13:30:42.300Z,9.10
2018-01-25T13:33:15.487Z,9.10
2018-01-25T13:35:43.059Z,9.10
2018-01-25T13:38:10.775Z,9.10
2018-01-25T13:40:38.404Z,9.10
2018-01-25T13:43:06.778Z,9.10
2018-01-25T13:45:34.335Z,9.10
2018-01-25T13:48:01.924Z,9.10
2018-01-25T13:50:29.534Z,9.10
2018-01-25T13:52:57.182Z,9.10
2018-01-25T13:55:24.771Z,9.00
2018-01-25T13:57:52.413Z,9.10
2018-01-25T14:00:20.818Z,9.00
2018-01-25T14:02:49.241Z,9.10
2018-01-25T14:05:17.577Z,9.10
2018-01-25T14:07:47.082Z,9.00
2018-01-25T14:10:14.680Z,9.00
2018-01-25T14:12:42.260Z,9.00
2018-01-25T14:15:09.893Z,8.90
2018-01-25T14:17:37.472Z,9.00
2018-01-25T14:20:05.067Z,9.00
2018-01-25T14:22:32.652Z,8.90
2018-01-25T14:25:00.219Z,8.90
2018-01-25T14:27:27.812Z,8.90
2018-01-25T14:29:55.379Z,8.90
2018-01-25T14:32:23.013Z,8.80
2018-01-25T14:34:51.403Z,8.80
2018-01-25T14:37:18.961Z,8.80
2018-01-25T14:39:46.603Z,8.80
2018-01-25T14:42:15.016Z,8.70
2018-01-25T14:44:42.597Z,8.70
2018-01-25T14:47:10.206Z,8.70
2018-01-25T14:49:37.941Z,8.60
2018-01-25T14:52:06.312Z,8.70
2018-01-25T14:54:33.895Z,8.70
2018-01-25T14:57:01.532Z,8.70
2018-01-25T14:59:29.096Z,8.60
2018-01-25T15:01:57.471Z,8.60
2018-01-25T15:04:25.092Z,8.50
2018-01-25T15:06:53.672Z,8.60
2018-01-25T15:09:21.270Z,8.60
2018-01-25T15:11:48.900Z,8.60
2018-01-25T15:14:17.300Z,8.50
2018-01-25T15:16:44.892Z,8.50
2018-01-25T15:19:12.503Z,8.50
2018-01-25T15:21:40.081Z,8.50
2018-01-25T15:24:07.740Z,8.50
2018-01-25T15:26:35.325Z,8.40
2018-01-25T15:29:02.934Z,8.40
2018-01-25T15:31:30.500Z,8.40
2018-01-25T15:33:58.110Z,8.30
2018-01-25T15:36:25.709Z,8.30
2018-01-25T15:38:53.338Z,8.30
2018-01-25T15:41:20.920Z,8.30
2018-01-25T15:43:48.553Z,8.30
2018-01-25T15:46:16.600Z,8.20
2018-01-25T15:48:44.179Z,8.30
2018-01-25T15:51:11.784Z,8.20
2018-01-25T15:53:39.355Z,8.20
2018-01-25T15:56:06.960Z,8.20
2018-01-25T15:58:34.535Z,8.20
2018-01-25T16:01:02.142Z,8.20
2018-01-25T16:03:29.707Z,8.20
2018-01-25T16:05:57.306Z,8.10
2018-01-25T16:08:24.891Z,8.10
2018-01-25T16:10:52.533Z,8.10
2018-01-25T16:13:20.874Z,8.10
2018-01-25T16:15:48.486Z,8.10
2018-01-25T16:18:18.907Z,8.10
2018-01-25T16:20:46.540Z,8.10
2018-01-25T16:23:14.975Z,8.10
2018-01-25T16:25:42.555Z,8.10
2018-01-25T16:28:10.400Z,8.10
2018-01-25T16:30:38.769Z,8.10
2018-01-25T16:33:06.453Z,8.10
2018-01-25T16:35:34.091Z,8.10
2018-01-25T16:38:02.469Z,8.00
2018-01-25T16:40:30.036Z,8.00
2018-01-25T16:42:57.702Z,8.00
2018-01-25T16:45:26.035Z,8.00
2018-01-25T16:47:53.607Z,8.00
2018-01-25T16:50:21.216Z,8.00
2018-01-25T16:52:48.834Z,8.00
2018-01-25T16:55:18.314Z,8.10
2018-01-25T16:57:46.656Z,8.10
2018-01-25T17:00:15.036Z,8.00
2018-01-25T17:02:42.612Z,8.00
2018-01-25T17:05:10.224Z,8.00
2018-01-25T17:07:37.824Z,8.00
2018-01-25T17:10:06.233Z,7.90
2018-01-25T17:12:33.812Z,7.90
2018-01-25T17:15:02.208Z,8.00
2018-01-25T17:17:30.618Z,8.00
2018-01-25T17:19:58.205Z,7.90
2018-01-25T17:22:26.569Z,7.90
2018-01-25T17:27:48.758Z,7.90
2018-01-25T17:30:17.345Z,7.90
2018-01-25T17:32:44.954Z,7.90
2018-01-25T17:35:12.513Z,7.90
2018-01-25T17:37:40.106Z,7.80
2018-01-25T17:40:07.712Z,7.80
2018-01-25T17:42:35.354Z,7.80
2018-01-25T17:45:02.980Z,7.80
2018-01-25T17:47:30.583Z,7.70
2018-01-25T17:49:58.170Z,7.70
2018-01-25T17:52:25.776Z,7.70
2018-01-25T17:54:54.115Z,7.70
2018-01-25T17:57:21.736Z,7.70
2018-01-25T17:59:49.313Z,7.70
2018-01-25T18:02:17.657Z,7.70
2018-01-25T18:04:46.693Z,7.70
2018-01-25T18:07:14.272Z,7.70
2018-01-25T18:09:41.863Z,7.70
2018-01-25T18:12:09.437Z,7.70
2018-01-25T18:14:37.820Z,7.60
2018-01-25T18:17:05.397Z,7.60
2018-01-25T18:19:33.003Z,7.60
2018-01-25T18:22:01.361Z,7.50
2018-01-25T18:24:28.967Z,7.50
2018-01-25T18:26:56.529Z,7.50
2018-01-25T18:29:24.131Z,7.50
2018-01-25T18:31:51.703Z,7.50
2018-01-25T18:34:19.298Z,7.40
2018-01-25T18:36:47.773Z,7.40
2018-01-25T18:39:15.372Z,7.40
2018-01-25T18:41:42.926Z,7.50
2018-01-25T18:44:10.553Z,7.40
2018-01-25T18:46:38.118Z,7.50
2018-01-25T18:49:05.976Z,7.50
2018-01-25T18:51:33.589Z,7.50
2018-01-25T18:54:01.168Z,7.50
2018-01-25T18:56:28.762Z,7.50
2018-01-25T18:58:56.328Z,7.50
2018-01-25T19:01:23.927Z,7.40
2018-01-25T19:03:51.491Z,7.50
2018-01-25T19:06:19.439Z,7.40
2018-01-25T19:08:47.004Z,7.40
2018-01-25T19:11:14.618Z,7.40
2018-01-25T19:13:42.206Z,7.40
2018-01-25T19:16:09.806Z,7.50
2018-01-25T19:18:38.190Z,7.40
2018-01-25T19:21:05.808Z,7.40
2018-01-25T19:23:33.901Z,7.40
2018-01-25T19:26:01.537Z,7.40
2018-01-25T19:28:29.109Z,7.40
2018-01-25T19:30:56.700Z,7.40
2018-01-25T19:33:24.364Z,7.40
2018-01-25T19:35:51.950Z,7.40
2018-01-25T19:38:19.557Z,7.40
2018-01-25T19:40:47.160Z,7.40
2018-01-25T19:43:14.775Z,7.40
2018-01-25T19:45:43.108Z,7.40
2018-01-25T19:48:12.098Z,7.40
2018-01-25T19:50:39.689Z,7.40
2018-01-25T19:53:07.306Z,7.40
2018-01-25T19:55:34.904Z,7.40
2018-01-25T19:58:02.520Z,7.40
2018-01-25T20:00:31.193Z,7.30
2018-01-25T20:02:59.333Z,7.40
2018-01-25T20:05:27.670Z,7.30
2018-01-25T20:07:56.743Z,7.30
2018-01-25T20:10:25.696Z,7.40
2018-01-25T20:12:53.273Z,7.30
2018-01-25T20:15:21.297Z,7.30
2018-01-25T20:17:48.901Z,7.30
2018-01-25T20:20:16.836Z,7.30
2018-01-25T20:22:45.194Z,7.40
2018-01-25T20:25:12.869Z,7.30
2018-01-25T20:27:40.490Z,7.30
2018-01-25T20:30:08.855Z,7.40
2018-01-25T20:32:36.431Z,7.40
2018-01-25T20:35:04.069Z,7.40
2018-01-25T20:37:32.430Z,7.40
2018-01-25T20:40:00.067Z,7.40
2018-01-25T20:42:28.415Z,7.30
2018-01-25T20:44:56.086Z,7.40
2018-01-25T20:47:23.683Z,7.40
2018-01-25T20:49:51.316Z,7.40
2018-01-25T20:52:19.664Z,7.40
2018-01-25T20:54:48.770Z,7.40
2018-01-25T20:57:17.375Z,7.40
2018-01-25T20:59:45.030Z,7.40
2018-01-25T21:02:12.606Z,7.40
2018-01-25T21:04:40.182Z,7.40
2018-01-25T21:07:07.791Z,7.40
2018-01-25T21:09:36.313Z,7.50
2018-01-25T21:12:03.934Z,7.50
2018-01-25T21:14:31.944Z,7.50
2018-01-25T21:17:18.170Z,7.50
2018-01-25T21:19:55.169Z,7.50
2018-01-25T21:22:22.848Z,7.50
2018-01-25T21:24:50.449Z,7.50
2018-01-25T21:27:19.433Z,7.50
2018-01-25T21:29:47.031Z,7.50
2018-01-25T21:32:14.665Z,7.40
2018-01-25T21:34:42.283Z,7.40
2018-01-25T21:37:09.902Z,7.40
2018-01-25T21:39:37.538Z,7.50
2018-01-25T21:42:05.906Z,7.40
2018-01-25T21:44:33.585Z,7.40
2018-01-25T21:47:01.193Z,7.50
2018-01-25T21:49:28.807Z,7.40
2018-01-25T21:51:57.155Z,7.40
2018-01-25T21:54:24.781Z,7.40
2018-01-25T21:56:53.132Z,7.40
2018-01-25T21:59:20.757Z,7.40
2018-01-25T22:01:48.450Z,7.40
2018-01-25T22:04:16.574Z,7.30
2018-01-25T22:06:44.173Z,7.30
2018-01-25T22:09:11.790Z,7.30
2018-01-25T22:11:39.415Z,7.30
2018-01-25T22:14:07.779Z,7.30
2018-01-25T22:16:35.460Z,7.30
2018-01-25T22:19:03.104Z,7.30
2018-01-25T22:21:30.732Z,7.30
2018-01-25T22:23:58.346Z,7.30
2018-01-25T22:26:27.012Z,7.30
2018-01-25T22:28:54.629Z,7.30
2018-01-25T22:31:22.295Z,7.30
2018-01-25T22:33:49.883Z,7.30
2018-01-25T22:36:18.156Z,7.30
2018-01-25T22:38:45.778Z,7.30
2018-01-25T22:41:13.362Z,7.30
2018-01-25T22:43:40.983Z,7.20
2018-01-25T22:46:08.556Z,7.20
2018-01-25T22:48:36.927Z,7.20
2018-01-25T22:51:04.514Z,7.20
2018-01-25T22:53:32.107Z,7.20
2018-01-25T22:55:59.709Z,7.20
2018-01-25T22:58:28.075Z,7.20
2018-01-25T23:00:55.649Z,7.20
2018-01-25T23:03:23.247Z,7.20
2018-01-25T23:05:50.820Z,7.20
2018-01-25T23:08:18.438Z,7.20
2018-01-25T23:10:46.029Z,7.20
2018-01-25T23:13:14.395Z,7.20
2018-01-25T23:15:41.980Z,7.20
2018-01-25T23:18:09.596Z,7.20
2018-01-25T23:20:37.179Z,7.20
2018-01-25T23:23:04.779Z,7.20
2018-01-25T23:25:33.137Z,7.20
2018-01-25T23:28:00.750Z,7.20
2018-01-25T23:30:28.325Z,7.20
2018-01-25T23:32:55.918Z,7.20
2018-01-25T23:35:23.559Z,7.20
2018-01-25T23:37:51.156Z,7.20
2018-01-25T23:40:18.782Z,7.20
2018-01-25T23:42:47.397Z,7.20
2018-01-25T23:45:16.862Z,7.20
2018-01-25T23:47:44.434Z,7.20
2018-01-25T23:50:12.094Z,7.20
2018-01-25T23:52:40.437Z,7.20
2018-01-25T23:55:08.068Z,7.10
2018-01-25T23:57:35.643Z,7.20
